Time;durP1;ratioP1;P1;durP2;ratioP2;P2;SDS_P1;SDS_P2;PMS_P1;PMS_P2;Temp;Humidity;BMP_temperature;BMP_pressure;BME280_temperature;BME280_humidity;BME280_pressure;Samples;Min_cycle;Max_cycle;Signal;HPM_P1;HPM_P2
2023/06/01 00:02:21;;;;;;;9.97;9.57;;;18.00;91.60;;;;;;4908378;29;20549;-82
2023/06/01 00:04:50;;;;;;;9.93;9.53;;;18.00;78.10;;;;;;4910443;29;20500;-82
2023/06/01 00:07:18;;;;;;;9.57;9.10;;;18.00;79.40;;;;;;4911268;29;21027;-83
2023/06/01 00:09:47;;;;;;;10.70;10.10;;;18.00;80.60;;;;;;4912704;29;20461;-82
2023/06/01 00:12:15;;;;;;;10.80;10.10;;;17.90;80.40;;;;;;4912562;29;20502;-82
2023/06/01 00:14:43;;;;;;;9.90;9.50;;;17.90;82.90;;;;;;4911654;29;20517;-81
2023/06/01 00:17:11;;;;;;;10.37;9.57;;;17.80;80.20;;;;;;4911734;29;20457;-82
2023/06/01 00:19:39;;;;;;;10.33;9.93;;;17.80;79.30;;;;;;4911225;29;20458;-82
2023/06/01 00:22:08;;;;;;;10.43;9.93;;;17.60;77.80;;;;;;4926580;29;20469;-82
2023/06/01 00:24:36;;;;;;;10.17;9.77;;;17.60;76.90;;;;;;4906972;29;20474;-82
2023/06/01 00:27:07;;;;;;;10.13;9.63;;;17.60;75.90;;;;;;4911447;29;20536;-83
2023/06/01 00:29:35;;;;;;;10.20;9.60;;;17.50;75.80;;;;;;4925279;29;20470;-83
2023/06/01 00:32:03;;;;;;;10.43;9.70;;;17.50;76.70;;;;;;4910714;29;20513;-83
2023/06/01 00:34:31;;;;;;;10.43;9.93;;;17.50;78.60;;;;;;4911362;29;20851;-82
2023/06/01 00:37:00;;;;;;;9.50;9.00;;;17.50;79.00;;;;;;4911845;29;20490;-82
2023/06/01 00:39:28;;;;;;;10.57;9.90;;;17.50;80.60;;;;;;4910920;29;20536;-81
2023/06/01 00:41:56;;;;;;;9.87;9.40;;;17.60;81.70;;;;;;4911022;29;20592;-82
2023/06/01 00:44:27;;;;;;;10.40;10.00;;;17.60;82.70;;;;;;4911100;29;20616;-82
2023/06/01 00:46:55;;;;;;;10.27;9.77;;;17.60;84.60;;;;;;4912118;29;20495;-82
2023/06/01 00:49:23;;;;;;;10.13;9.50;;;17.40;82.80;;;;;;4911534;29;20477;-82
2023/06/01 00:51:52;;;;;;;9.90;9.47;;;17.40;80.10;;;;;;4912046;29;20486;-82
2023/06/01 00:54:21;;;;;;;9.97;9.37;;;17.30;81.30;;;;;;4912181;29;20520;-82
2023/06/01 00:56:49;;;;;;;9.93;9.43;;;17.20;80.50;;;;;;4911262;29;20473;-82
2023/06/01 00:59:17;;;;;;;10.67;9.97;;;17.20;82.00;;;;;;4910414;29;20458;-81
2023/06/01 01:01:46;;;;;;;9.93;9.53;;;17.20;83.10;;;;;;4910093;29;20449;-82
2023/06/01 01:04:25;;;;;;;11.60;10.67;;;17.20;83.80;;;;;;4911508;29;20465;-83
2023/06/01 01:07:03;;;;;;;9.90;9.40;;;17.30;84.80;;;;;;4910004;29;20486;-83
2023/06/01 01:09:36;;;;;;;9.87;9.37;;;17.30;84.30;;;;;;4909591;29;20862;-83
2023/06/01 01:12:15;;;;;;;10.57;9.93;;;17.40;87.50;;;;;;4912217;29;20461;-82
2023/06/01 01:14:51;;;;;;;10.50;10.00;;;17.20;84.70;;;;;;4911590;29;20449;-82
2023/06/01 01:17:32;;;;;;;10.80;10.30;;;17.10;85.30;;;;;;4911591;29;20460;-81
2023/06/01 01:20:08;;;;;;;10.20;9.80;;;17.10;87.70;;;;;;4911623;29;20467;-82
2023/06/01 01:23:12;;;;;;;10.13;9.63;;;17.00;88.90;;;;;;4910972;29;20497;-82
2023/06/01 01:26:10;;;;;;;11.20;10.37;;;17.00;89.10;;;;;;4910732;29;20767;-81
2023/06/01 01:28:43;;;;;;;10.60;10.10;;;16.90;89.80;;;;;;4908485;29;20480;-81
2023/06/01 01:31:14;;;;;;;11.87;11.27;;;16.90;89.80;;;;;;4910586;29;20536;-82
2023/06/01 01:33:43;;;;;;;11.97;11.20;;;16.80;90.00;;;;;;4912324;29;20492;-81
2023/06/01 01:36:12;;;;;;;11.90;11.40;;;16.80;89.30;;;;;;4911788;29;20470;-82
2023/06/01 01:38:40;;;;;;;11.10;10.50;;;16.80;90.40;;;;;;4910745;29;20545;-82
2023/06/01 01:41:08;;;;;;;11.07;10.47;;;16.80;91.00;;;;;;4910594;29;20457;-82
2023/06/01 01:43:37;;;;;;;11.17;10.60;;;16.80;91.90;;;;;;4910894;29;20480;-82
2023/06/01 01:46:15;;;;;;;11.20;10.60;;;16.80;91.60;;;;;;4911550;29;21027;-81
2023/06/01 01:48:52;;;;;;;11.10;10.43;;;16.80;91.80;;;;;;4910488;29;20457;-82
2023/06/01 01:51:25;;;;;;;10.90;10.40;;;16.80;92.70;;;;;;4910814;29;20452;-81
2023/06/01 01:53:55;;;;;;;11.07;10.67;;;16.70;92.00;;;;;;4911142;29;20485;-81
2023/06/01 01:56:25;;;;;;;11.57;10.97;;;16.70;92.10;;;;;;4912935;29;20529;-81
2023/06/01 01:58:54;;;;;;;10.97;10.47;;;16.70;92.50;;;;;;4910313;29;20815;-81
2023/06/01 02:01:25;;;;;;;11.50;10.70;;;16.70;92.80;;;;;;4910313;29;20456;-81
2023/06/01 02:04:01;;;;;;;10.60;10.20;;;16.70;93.00;;;;;;4911134;29;21338;-83
2023/06/01 02:06:30;;;;;;;10.53;9.93;;;16.60;93.10;;;;;;4910653;29;20492;-82
2023/06/01 02:08:59;;;;;;;10.83;10.33;;;16.70;93.50;;;;;;4924753;29;20975;-81
2023/06/01 02:11:27;;;;;;;10.53;10.03;;;16.70;92.60;;;;;;4909969;29;20461;-81
2023/06/01 02:13:55;;;;;;;11.17;10.67;;;16.70;92.40;;;;;;4908977;29;20486;-82
2023/06/01 02:16:24;;;;;;;10.90;10.43;;;16.70;93.80;;;;;;4910925;29;20456;-81
2023/06/01 02:18:53;;;;;;;10.90;10.30;;;16.60;93.60;;;;;;4910191;29;20455;-82
2023/06/01 02:21:22;;;;;;;11.20;10.60;;;16.50;93.70;;;;;;4903333;29;20465;-82
2023/06/01 02:23:50;;;;;;;11.33;10.83;;;16.50;94.10;;;;;;4909499;29;20520;-82
2023/06/01 02:26:19;;;;;;;12.10;11.50;;;16.40;93.90;;;;;;4910576;29;20497;-81
2023/06/01 02:28:47;;;;;;;10.97;10.37;;;16.40;94.30;;;;;;4910467;29;20963;-82
2023/06/01 02:31:15;;;;;;;10.40;9.83;;;16.40;95.30;;;;;;4908481;29;20512;-81
2023/06/01 02:33:44;;;;;;;10.63;10.23;;;16.40;95.50;;;;;;4910057;29;20488;-81
2023/06/01 02:36:12;;;;;;;10.13;9.73;;;16.40;99.90;;;;;;4910072;29;20468;-83
2023/06/01 02:38:41;;;;;;;10.87;10.13;;;16.40;96.40;;;;;;4908485;29;20469;-82
2023/06/01 02:41:09;;;;;;;10.70;10.20;;;16.40;95.90;;;;;;4909189;29;20465;-82
2023/06/01 02:43:37;;;;;;;11.30;10.53;;;16.40;96.10;;;;;;4910007;29;20483;-82
2023/06/01 02:46:05;;;;;;;11.03;10.43;;;16.30;96.50;;;;;;4908817;29;21006;-82
2023/06/01 02:48:33;;;;;;;10.60;10.10;;;16.30;96.80;;;;;;4904231;29;20520;-81
2023/06/01 02:51:03;;;;;;;11.07;10.57;;;16.30;98.80;;;;;;4909675;29;20962;-82
2023/06/01 02:53:31;;;;;;;11.90;11.20;;;16.20;98.70;;;;;;4910218;29;20572;-82
2023/06/01 02:55:59;;;;;;;11.47;10.73;;;16.20;98.90;;;;;;4905870;29;20471;-81
2023/06/01 02:58:29;;;;;;;11.77;11.17;;;16.20;99.60;;;;;;4908750;29;20464;-82
2023/06/01 03:00:58;;;;;;;10.90;10.30;;;16.20;98.90;;;;;;4907143;29;21048;-82
2023/06/01 03:03:26;;;;;;;11.50;10.90;;;16.20;99.00;;;;;;4909199;29;20986;-82
2023/06/01 03:05:55;;;;;;;11.47;10.87;;;16.20;99.90;;;;;;4909201;29;20452;-82
2023/06/01 03:08:25;;;;;;;10.50;10.10;;;16.10;99.90;;;;;;4908516;29;20471;-82
2023/06/01 03:10:53;;;;;;;11.20;10.70;;;16.10;99.90;;;;;;4900901;29;20460;-82
2023/06/01 03:13:22;;;;;;;10.83;10.40;;;16.00;99.90;;;;;;4908784;29;20986;-82
2023/06/01 03:15:51;;;;;;;10.80;10.23;;;16.00;99.90;;;;;;4907292;29;20504;-83
2023/06/01 03:18:19;;;;;;;11.03;10.30;;;15.90;99.90;;;;;;4908524;29;20505;-83
2023/06/01 03:20:48;;;;;;;10.60;10.20;;;15.90;99.90;;;;;;4907285;29;21069;-82
2023/06/01 03:23:16;;;;;;;12.10;11.30;;;15.90;99.90;;;;;;4908658;29;20485;-82
2023/06/01 03:25:46;;;;;;;10.80;10.40;;;15.90;99.90;;;;;;4908979;29;20461;-82
2023/06/01 03:28:14;;;;;;;11.17;10.57;;;15.80;99.90;;;;;;4907390;29;20998;-80
2023/06/01 03:30:43;;;;;;;10.53;9.93;;;15.80;99.90;;;;;;4907104;29;20538;-81
2023/06/01 03:33:11;;;;;;;10.47;9.87;;;15.80;99.90;;;;;;4908420;29;20550;-83
2023/06/01 03:35:40;;;;;;;10.50;10.00;;;15.80;99.90;;;;;;4907163;29;20465;-82
2023/06/01 03:38:08;;;;;;;10.83;10.23;;;15.80;99.90;;;;;;4907517;29;20475;-82
2023/06/01 03:40:36;;;;;;;10.80;10.37;;;15.90;99.90;;;;;;4901708;29;20503;-82
2023/06/01 03:43:06;;;;;;;11.60;10.90;;;15.80;99.90;;;;;;4908064;29;20527;-81
2023/06/01 03:45:34;;;;;;;10.57;10.07;;;15.80;99.90;;;;;;4908025;29;20472;-82
2023/06/01 03:48:02;;;;;;;11.00;10.40;;;15.80;99.90;;;;;;4907433;29;20495;-82
2023/06/01 03:50:30;;;;;;;11.00;10.33;;;15.80;99.90;;;;;;4908829;29;20583;-82
2023/06/01 03:52:59;;;;;;;11.03;10.50;;;15.80;99.90;;;;;;4907411;29;20481;-82
2023/06/01 03:55:27;;;;;;;11.30;10.70;;;15.80;99.90;;;;;;4909165;29;20456;-82
2023/06/01 03:57:55;;;;;;;10.90;10.40;;;15.80;99.90;;;;;;4907974;29;20472;-81
2023/06/01 04:00:24;;;;;;;11.37;10.80;;;15.80;99.90;;;;;;4906207;29;20466;-82
2023/06/01 04:02:56;;;;;;;12.20;11.50;;;15.70;99.90;;;;;;4901764;29;20508;-82
2023/06/01 04:05:26;;;;;;;10.27;9.73;;;15.70;99.90;;;;;;4906160;29;21034;-83
2023/06/01 04:07:56;;;;;;;11.00;10.47;;;15.80;99.90;;;;;;4905934;29;20469;-82
2023/06/01 04:10:24;;;;;;;10.70;10.20;;;15.80;99.90;;;;;;4905266;29;21100;-83
2023/06/01 04:12:52;;;;;;;11.20;10.50;;;15.80;99.90;;;;;;4899915;29;20849;-82
2023/06/01 04:15:22;;;;;;;9.77;9.10;;;15.80;99.90;;;;;;4899870;29;20469;-82
2023/06/01 04:17:52;;;;;;;10.47;9.97;;;15.80;99.90;;;;;;4904844;29;20470;-81
2023/06/01 04:20:20;;;;;;;17.03;15.30;;;15.80;99.90;;;;;;4921316;29;20461;-83
2023/06/01 04:22:48;;;;;;;13.17;12.17;;;15.80;99.90;;;;;;4906202;29;20567;-83
2023/06/01 04:25:20;;;;;;;14.13;13.03;;;15.80;99.90;;;;;;4906523;29;20925;-82
2023/06/01 04:27:51;;;;;;;12.30;11.60;;;15.80;99.90;;;;;;4904967;29;20482;-82
2023/06/01 04:30:20;;;;;;;12.60;11.80;;;15.80;99.90;;;;;;4905250;29;20548;-82
2023/06/01 04:32:48;;;;;;;12.50;11.80;;;15.90;99.90;;;;;;4903358;29;21255;-82
2023/06/01 04:35:18;;;;;;;12.10;11.33;;;15.90;99.90;;;;;;4906556;29;20447;-82
2023/06/01 04:37:46;;;;;;;12.67;11.80;;;16.00;99.90;;;;;;4903137;29;20461;-82
2023/06/01 04:40:15;;;;;;;12.13;11.53;;;16.00;99.90;;;;;;4904576;29;20633;-82
2023/06/01 04:42:48;;;;;;;12.70;12.07;;;16.00;99.90;;;;;;4905623;29;20535;-82
2023/06/01 04:45:18;;;;;;;12.07;11.57;;;16.10;99.90;;;;;;4907825;29;20455;-81
2023/06/01 04:47:47;;;;;;;12.03;11.33;;;16.00;99.90;;;;;;4906600;29;20500;-82
2023/06/01 04:50:18;;;;;;;12.40;11.70;;;16.10;99.90;;;;;;4908059;29;20798;-82
2023/06/01 04:52:47;;;;;;;11.90;11.30;;;16.20;99.90;;;;;;4909433;29;20475;-81
2023/06/01 04:55:16;;;;;;;13.10;12.30;;;16.20;99.90;;;;;;4909544;29;20464;-81
2023/06/01 04:57:44;;;;;;;13.13;12.00;;;16.20;99.90;;;;;;4909649;29;20998;-82
2023/06/01 05:00:18;;;;;;;12.20;11.50;;;16.30;99.90;;;;;;4910901;29;20510;-81
2023/06/01 05:02:47;;;;;;;12.50;11.90;;;16.30;99.90;;;;;;4909766;29;21040;-80
2023/06/01 05:05:18;;;;;;;12.27;11.67;;;16.30;99.90;;;;;;4911048;29;20459;-82
2023/06/01 05:07:46;;;;;;;12.93;12.13;;;16.30;99.90;;;;;;4911165;29;20497;-81
2023/06/01 05:10:14;;;;;;;13.77;12.67;;;16.40;99.90;;;;;;4908810;29;20932;-81
2023/06/01 05:12:42;;;;;;;12.27;11.47;;;16.40;99.90;;;;;;4910006;29;20871;-82
2023/06/01 05:15:11;;;;;;;12.53;11.83;;;16.40;99.90;;;;;;4911973;29;20493;-82
2023/06/01 05:17:39;;;;;;;12.83;12.17;;;16.40;99.90;;;;;;4910282;29;20472;-82
2023/06/01 05:20:11;;;;;;;12.57;11.70;;;16.40;99.90;;;;;;4912231;29;20461;-82
2023/06/01 05:22:40;;;;;;;14.20;13.30;;;16.50;99.90;;;;;;4911084;29;20591;-81
2023/06/01 05:25:09;;;;;;;14.23;13.50;;;16.50;99.90;;;;;;4909934;29;20449;-81
2023/06/01 05:27:38;;;;;;;13.80;13.10;;;16.50;99.90;;;;;;4909456;29;20482;-81
2023/06/01 05:30:07;;;;;;;13.30;12.60;;;16.50;99.90;;;;;;4909893;29;21022;-82
2023/06/01 05:32:36;;;;;;;13.13;12.20;;;16.50;99.90;;;;;;4908105;29;20489;-81
2023/06/01 05:35:05;;;;;;;14.20;13.40;;;16.50;99.90;;;;;;4910194;29;20488;-81
2023/06/01 05:37:34;;;;;;;14.07;13.10;;;16.50;99.90;;;;;;4909730;29;20457;-83
2023/06/01 05:40:06;;;;;;;12.80;12.13;;;16.60;99.90;;;;;;4910314;29;20472;-82
2023/06/01 05:42:35;;;;;;;14.30;13.20;;;16.60;99.90;;;;;;4909311;29;20490;-82
2023/06/01 05:45:05;;;;;;;13.60;12.90;;;16.70;99.90;;;;;;4910471;29;20470;-81
2023/06/01 05:47:33;;;;;;;14.17;13.27;;;16.70;99.90;;;;;;4908588;29;20533;-81
2023/06/01 05:50:01;;;;;;;14.23;13.30;;;16.70;99.90;;;;;;4908448;29;20542;-81
2023/06/01 05:52:29;;;;;;;13.97;13.27;;;16.80;99.90;;;;;;4910332;29;20470;-82
2023/06/01 05:54:57;;;;;;;13.73;12.80;;;16.80;99.90;;;;;;4909258;29;20465;-81
2023/06/01 05:57:27;;;;;;;12.70;12.03;;;16.90;99.90;;;;;;4910222;29;20549;-81
2023/06/01 05:59:55;;;;;;;13.10;12.23;;;17.00;99.90;;;;;;4910324;29;20457;-82
2023/06/01 06:02:23;;;;;;;12.70;11.90;;;17.10;99.90;;;;;;4909815;29;20499;-81
2023/06/01 06:04:51;;;;;;;12.67;11.97;;;17.10;99.90;;;;;;4910230;29;20544;-82
2023/06/01 06:07:19;;;;;;;12.40;11.47;;;17.10;99.90;;;;;;4910448;29;20476;-81
2023/06/01 06:09:47;;;;;;;12.83;12.03;;;17.20;99.90;;;;;;4906693;29;20537;-81
2023/06/01 06:12:15;;;;;;;13.10;11.90;;;17.30;99.90;;;;;;4907985;29;20496;-82
2023/06/01 06:14:45;;;;;;;13.07;12.00;;;17.30;99.90;;;;;;4909018;29;20469;-81
2023/06/01 06:17:13;;;;;;;12.80;11.90;;;17.30;99.90;;;;;;4909860;29;21024;-82
2023/06/01 06:19:43;;;;;;;13.00;12.20;;;17.40;99.90;;;;;;4910427;29;20457;-82
2023/06/01 06:22:11;;;;;;;13.03;12.00;;;17.50;99.90;;;;;;4909607;29;20504;-82
2023/06/01 06:24:40;;;;;;;13.27;12.57;;;17.60;99.90;;;;;;4908765;29;20470;-81
2023/06/01 06:27:08;;;;;;;13.20;12.40;;;17.70;99.90;;;;;;4909177;29;20549;-80
2023/06/01 06:29:36;;;;;;;13.00;12.20;;;17.70;99.90;;;;;;4909581;29;20999;-82
2023/06/01 06:32:06;;;;;;;13.47;12.37;;;17.90;99.90;;;;;;4910243;29;21190;-81
2023/06/01 06:34:35;;;;;;;13.63;12.50;;;17.90;99.90;;;;;;4908752;29;20891;-82
2023/06/01 06:37:05;;;;;;;13.43;12.60;;;18.00;99.90;;;;;;4908662;29;20548;-81
2023/06/01 06:39:34;;;;;;;13.53;12.80;;;17.90;99.90;;;;;;4908581;29;20458;-82
2023/06/01 06:42:02;;;;;;;13.00;12.13;;;18.00;99.90;;;;;;4907564;29;20570;-82
2023/06/01 06:44:31;;;;;;;12.80;12.20;;;18.00;99.90;;;;;;4907793;29;20916;-82
2023/06/01 06:47:00;;;;;;;13.20;12.50;;;18.20;99.90;;;;;;4909088;29;20473;-82
2023/06/01 06:49:31;;;;;;;12.63;12.10;;;18.30;99.90;;;;;;4908474;29;20487;-82
2023/06/01 06:51:59;;;;;;;12.20;11.30;;;18.30;99.90;;;;;;4908819;29;20524;-82
2023/06/01 06:54:28;;;;;;;12.83;11.93;;;18.30;99.90;;;;;;4908353;29;20608;-83
2023/06/01 06:56:56;;;;;;;12.53;12.00;;;18.40;99.90;;;;;;4908920;29;20547;-82
2023/06/01 06:59:24;;;;;;;12.73;11.93;;;18.40;99.90;;;;;;4906907;29;20825;-82
2023/06/01 07:01:52;;;;;;;13.13;12.30;;;18.40;99.90;;;;;;4908747;29;20459;-82
2023/06/01 07:04:21;;;;;;;12.23;11.70;;;18.40;99.90;;;;;;4907559;29;20563;-82
2023/06/01 07:06:51;;;;;;;13.93;12.97;;;18.60;99.90;;;;;;4908205;29;20957;-82
2023/06/01 07:09:20;;;;;;;13.20;12.30;;;18.70;99.90;;;;;;4906565;29;20903;-82
2023/06/01 07:11:48;;;;;;;12.47;11.93;;;18.70;99.90;;;;;;4907713;29;20474;-82
2023/06/01 07:14:16;;;;;;;12.53;11.93;;;18.80;99.90;;;;;;4907136;29;21016;-81
2023/06/01 07:16:45;;;;;;;13.23;12.50;;;18.80;99.90;;;;;;4906274;29;20450;-82
2023/06/01 07:19:13;;;;;;;12.77;12.17;;;18.90;99.90;;;;;;4906976;29;20457;-81
2023/06/01 07:21:41;;;;;;;13.33;12.63;;;19.00;99.90;;;;;;4906965;29;21171;-81
2023/06/01 07:24:11;;;;;;;12.80;12.20;;;19.10;99.90;;;;;;4907024;29;21091;-82
2023/06/01 07:26:39;;;;;;;14.07;13.23;;;19.10;99.90;;;;;;4907480;29;20457;-81
2023/06/01 07:29:08;;;;;;;13.93;13.33;;;19.10;99.90;;;;;;4907704;29;20545;-81
2023/06/01 07:31:39;;;;;;;14.63;13.30;;;19.20;99.90;;;;;;4906162;29;20999;-82
2023/06/01 07:34:07;;;;;;;14.30;13.53;;;19.30;99.90;;;;;;4906473;29;20462;-81
2023/06/01 07:36:36;;;;;;;14.90;13.90;;;19.30;99.90;;;;;;4905420;29;20557;-82
2023/06/01 07:39:08;;;;;;;14.27;13.67;;;19.40;99.90;;;;;;4906480;29;20452;-82
2023/06/01 07:41:39;;;;;;;14.80;14.10;;;19.50;99.90;;;;;;4907662;29;20458;-82
2023/06/01 07:44:08;;;;;;;14.03;13.53;;;19.50;99.90;;;;;;4908412;29;20509;-82
2023/06/01 07:46:36;;;;;;;15.60;14.57;;;19.70;99.90;;;;;;4906508;29;20450;-82
2023/06/01 07:49:04;;;;;;;15.10;14.50;;;19.70;99.90;;;;;;4907698;29;20470;-81
2023/06/01 07:51:32;;;;;;;15.50;14.43;;;19.80;99.90;;;;;;4922096;29;20552;-82
2023/06/01 07:54:01;;;;;;;15.53;14.83;;;19.80;99.90;;;;;;4908264;29;20477;-81
2023/06/01 07:56:29;;;;;;;14.77;14.03;;;19.90;99.90;;;;;;4907002;29;20525;-81
2023/06/01 07:58:59;;;;;;;15.70;14.80;;;20.00;99.90;;;;;;4906764;29;20450;-81
2023/06/01 08:01:27;;;;;;;15.13;14.43;;;20.00;99.90;;;;;;4908911;29;20464;-81
2023/06/01 08:03:56;;;;;;;14.43;13.93;;;20.00;99.90;;;;;;4907423;29;20870;-81
2023/06/01 08:06:24;;;;;;;15.20;14.43;;;20.10;99.90;;;;;;4908657;29;20464;-82
2023/06/01 08:08:53;;;;;;;16.20;15.20;;;20.10;99.90;;;;;;4905077;29;20521;-82
2023/06/01 08:11:23;;;;;;;15.20;14.50;;;20.30;99.90;;;;;;4908332;29;20465;-82
2023/06/01 08:13:51;;;;;;;15.70;14.80;;;20.30;99.90;;;;;;4906723;29;20530;-82
2023/06/01 08:16:21;;;;;;;15.00;14.40;;;20.30;99.90;;;;;;4907595;29;20468;-82
2023/06/01 08:18:50;;;;;;;16.17;15.57;;;20.40;99.90;;;;;;4906947;29;20476;-82
2023/06/01 08:21:18;;;;;;;15.90;15.17;;;20.50;99.90;;;;;;4907156;29;20491;-82
2023/06/01 08:23:47;;;;;;;16.90;16.10;;;20.60;99.90;;;;;;4906376;29;20565;-82
2023/06/01 08:26:16;;;;;;;17.67;16.60;;;20.70;99.90;;;;;;4909468;29;20475;-82
2023/06/01 08:28:51;;;;;;;16.90;16.10;;;20.70;99.90;;;;;;4910712;29;21078;-82
2023/06/01 08:31:21;;;;;;;17.33;16.33;;;20.80;99.90;;;;;;4912315;29;20460;-82
2023/06/01 08:33:50;;;;;;;15.73;15.07;;;20.80;99.90;;;;;;4910436;29;20477;-82
2023/06/01 08:36:21;;;;;;;16.37;15.57;;;20.80;99.90;;;;;;4911205;29;20453;-82
2023/06/01 08:38:55;;;;;;;16.00;15.23;;;20.80;99.90;;;;;;4911040;29;20466;-82
2023/06/01 08:41:32;;;;;;;16.90;15.97;;;20.90;99.90;;;;;;4912959;29;20528;-82
2023/06/01 08:44:04;;;;;;;16.80;16.10;;;20.90;99.90;;;;;;4911065;29;20466;-82
2023/06/01 08:46:34;;;;;;;17.00;16.30;;;21.00;99.90;;;;;;4912269;29;20959;-83
2023/06/01 08:49:03;;;;;;;17.20;16.30;;;21.00;99.90;;;;;;4911077;29;20493;-80
2023/06/01 08:51:36;;;;;;;17.20;16.30;;;21.10;99.90;;;;;;4910507;29;20469;-81
2023/06/01 08:54:07;;;;;;;17.13;16.07;;;21.20;99.90;;;;;;4910202;29;20459;-82
2023/06/01 08:56:35;;;;;;;16.17;15.60;;;21.20;99.90;;;;;;4910141;29;20448;-82
2023/06/01 08:59:04;;;;;;;16.70;16.10;;;21.30;99.90;;;;;;4910179;29;20445;-81
2023/06/01 09:01:33;;;;;;;16.90;16.20;;;21.30;99.90;;;;;;4909879;29;20478;-82
2023/06/01 09:04:02;;;;;;;16.60;15.90;;;21.40;99.90;;;;;;4902032;29;20543;-81
2023/06/01 09:06:30;;;;;;;16.50;15.60;;;21.40;99.90;;;;;;4909873;29;20524;-81
2023/06/01 09:08:59;;;;;;;17.27;16.57;;;21.50;99.90;;;;;;4910509;29;20536;-81
2023/06/01 09:11:27;;;;;;;17.37;16.57;;;21.50;99.90;;;;;;4909893;29;21345;-82
2023/06/01 09:13:57;;;;;;;17.57;16.77;;;21.50;99.90;;;;;;4911287;29;20489;-82
2023/06/01 09:16:37;;;;;;;17.17;16.37;;;21.60;99.90;;;;;;4910923;29;20469;-81
2023/06/01 09:19:08;;;;;;;17.43;16.60;;;21.70;99.90;;;;;;4911703;29;21065;-82
2023/06/01 09:21:37;;;;;;;17.20;16.27;;;21.70;99.90;;;;;;4900631;29;20449;-82
2023/06/01 09:24:21;;;;;;;16.90;16.00;;;21.80;99.90;;;;;;4911001;29;20465;-81
2023/06/01 09:26:50;;;;;;;18.13;17.23;;;21.90;99.90;;;;;;4912010;29;20517;-82
2023/06/01 09:29:18;;;;;;;17.07;16.33;;;21.80;99.90;;;;;;4910689;29;21218;-82
2023/06/01 09:31:49;;;;;;;16.70;15.80;;;21.80;99.90;;;;;;4910598;29;20504;-82
2023/06/01 09:34:19;;;;;;;17.27;16.33;;;21.90;99.90;;;;;;4910477;29;20584;-81
2023/06/01 09:36:48;;;;;;;16.63;15.93;;;22.00;99.90;;;;;;4911489;29;20453;-81
2023/06/01 09:39:18;;;;;;;17.27;16.30;;;22.00;99.90;;;;;;4911805;29;20457;-83
2023/06/01 09:41:51;;;;;;;17.47;16.47;;;22.00;99.90;;;;;;4910120;29;20467;-82
2023/06/01 09:44:26;;;;;;;18.23;17.30;;;22.00;99.90;;;;;;4908937;29;20453;-82
2023/06/01 09:46:57;;;;;;;19.20;17.93;;;22.10;99.90;;;;;;4908453;29;20489;-82
2023/06/01 09:49:27;;;;;;;17.83;17.00;;;22.20;99.90;;;;;;4909523;29;20453;-81
2023/06/01 09:52:12;;;;;;;18.10;17.10;;;22.20;99.90;;;;;;4911239;29;20640;-81
2023/06/01 09:54:42;;;;;;;17.40;16.47;;;22.30;99.90;;;;;;4909507;29;21039;-82
2023/06/01 09:57:12;;;;;;;17.60;16.67;;;22.40;99.90;;;;;;4911179;29;20885;-82
2023/06/01 09:59:42;;;;;;;18.20;17.20;;;22.40;99.90;;;;;;4908653;29;20458;-81
2023/06/01 10:02:16;;;;;;;18.40;17.40;;;22.50;99.90;;;;;;4910351;29;21275;-82
2023/06/01 10:04:49;;;;;;;18.10;17.20;;;22.70;99.90;;;;;;4908708;29;20557;-82
2023/06/01 10:07:18;;;;;;;18.03;17.23;;;22.70;99.90;;;;;;4910782;29;20465;-82
2023/06/01 10:09:52;;;;;;;18.13;17.10;;;22.70;99.90;;;;;;4907940;29;21117;-80
2023/06/01 10:12:20;;;;;;;17.50;16.70;;;22.70;99.90;;;;;;4911063;29;20486;-82
2023/06/01 10:14:50;;;;;;;18.30;17.23;;;22.70;99.90;;;;;;4909613;29;20485;-81
2023/06/01 10:17:19;;;;;;;17.20;16.40;;;22.70;99.90;;;;;;4909126;29;20461;-82
2023/06/01 10:19:48;;;;;;;16.97;16.17;;;22.70;99.90;;;;;;4908824;29;20466;-82
2023/06/01 10:22:17;;;;;;;17.37;16.40;;;22.80;99.90;;;;;;4908337;29;20473;-83
2023/06/01 10:24:46;;;;;;;15.93;15.33;;;22.70;99.90;;;;;;4903044;29;20549;-82
2023/06/01 10:27:20;;;;;;;16.30;15.40;;;22.80;99.90;;;;;;4909266;29;20481;-82
2023/06/01 10:29:49;;;;;;;17.10;16.30;;;22.80;99.90;;;;;;4909332;29;20457;-82
2023/06/01 10:32:48;;;;;;;16.90;15.93;;;22.80;99.90;;;;;;4907442;29;20489;-81
2023/06/01 10:36:01;;;;;;;15.43;14.83;;;22.90;99.90;;;;;;4908056;29;20454;-82
2023/06/01 10:38:30;;;;;;;16.07;15.37;;;23.00;99.90;;;;;;4907670;29;20541;-82
2023/06/01 10:41:30;;;;;;;16.90;16.20;;;23.10;99.90;;;;;;4909221;29;20445;-82
2023/06/01 10:43:59;;;;;;;17.73;16.93;;;23.00;99.90;;;;;;4908445;29;20570;-81
2023/06/01 10:46:48;;;;;;;16.10;15.50;;;23.10;99.90;;;;;;4909628;29;21077;-81
2023/06/01 10:49:17;;;;;;;16.13;15.43;;;23.10;99.90;;;;;;4907200;29;20461;-81
2023/06/01 10:51:45;;;;;;;15.30;14.60;;;23.10;99.90;;;;;;4908734;29;20489;-82
2023/06/01 10:54:27;;;;;;;15.40;14.70;;;23.00;99.90;;;;;;4910998;29;20472;-83
2023/06/01 10:57:24;;;;;;;14.80;14.10;;;23.00;99.90;;;;;;4910473;29;20517;-82
2023/06/01 11:00:15;;;;;;;14.60;13.90;;;23.10;99.90;;;;;;4901954;29;20876;-81
2023/06/01 11:02:48;;;;;;;14.60;13.97;;;23.20;99.90;;;;;;4909626;29;20515;-82
2023/06/01 11:05:46;;;;;;;15.47;14.57;;;23.20;99.90;;;;;;4909989;29;20564;-81
2023/06/01 11:08:53;;;;;;;16.50;15.70;;;23.20;99.90;;;;;;4908455;29;21038;-82
2023/06/01 11:11:25;;;;;;;16.93;16.13;;;23.30;99.90;;;;;;4908108;29;21098;-82
2023/06/01 11:14:13;;;;;;;15.60;14.90;;;23.40;99.90;;;;;;4908167;29;20829;-82
2023/06/01 11:16:42;;;;;;;16.27;15.10;;;23.40;99.90;;;;;;4908569;29;20474;-81
2023/06/01 11:19:10;;;;;;;15.30;14.60;;;23.40;99.90;;;;;;4907384;29;20450;-82
2023/06/01 11:21:43;;;;;;;14.87;14.07;;;23.60;99.90;;;;;;4907211;29;20465;-82
2023/06/01 11:24:13;;;;;;;15.30;14.60;;;23.60;99.90;;;;;;4909331;29;20591;-82
2023/06/01 11:26:42;;;;;;;15.47;14.67;;;23.60;99.90;;;;;;4906801;29;20689;-82
2023/06/01 11:29:13;;;;;;;14.10;13.60;;;23.70;99.90;;;;;;4906525;29;20489;-82
2023/06/01 11:31:45;;;;;;;15.60;14.80;;;23.70;99.90;;;;;;4907402;29;20501;-83
2023/06/01 11:34:15;;;;;;;16.30;15.30;;;23.70;99.90;;;;;;4908199;29;20949;-83
2023/06/01 11:36:48;;;;;;;14.77;13.97;;;23.80;99.90;;;;;;4907812;29;20477;-82
2023/06/01 11:39:24;;;;;;;14.67;13.80;;;23.80;99.90;;;;;;4906461;29;20472;-82
2023/06/01 11:42:04;;;;;;;14.50;13.80;;;23.90;99.90;;;;;;4907636;29;20465;-82
2023/06/01 11:44:32;;;;;;;14.23;13.37;;;23.80;99.90;;;;;;4907478;29;20976;-82
2023/06/01 11:47:00;;;;;;;14.47;13.77;;;23.80;99.90;;;;;;4907123;29;20506;-82
2023/06/01 11:49:29;;;;;;;14.33;13.73;;;23.90;99.90;;;;;;4906504;29;20490;-82
2023/06/01 11:51:58;;;;;;;13.20;12.60;;;23.80;99.90;;;;;;4905961;29;20557;-82
2023/06/01 11:54:28;;;;;;;14.13;13.30;;;23.80;99.90;;;;;;4908927;29;20465;-81
2023/06/01 11:56:57;;;;;;;13.93;13.23;;;23.80;99.90;;;;;;4907241;29;20500;-82
2023/06/01 11:59:28;;;;;;;14.00;13.30;;;23.80;99.90;;;;;;4906104;29;20502;-82
2023/06/01 12:01:56;;;;;;;13.43;12.80;;;23.80;99.90;;;;;;4907591;29;20446;-82
2023/06/01 12:04:26;;;;;;;14.40;13.80;;;24.00;99.90;;;;;;4907148;29;20465;-82
2023/06/01 12:07:07;;;;;;;14.20;13.57;;;23.90;99.90;;;;;;4907699;29;21063;-82
2023/06/01 12:09:36;;;;;;;14.27;13.53;;;24.00;99.90;;;;;;4906372;29;20959;-82
2023/06/01 12:12:07;;;;;;;14.40;13.80;;;24.00;99.90;;;;;;4905612;29;21117;-82
2023/06/01 12:14:36;;;;;;;15.13;14.43;;;24.10;99.90;;;;;;4907001;29;20983;-83
2023/06/01 12:17:05;;;;;;;14.80;13.90;;;24.10;99.90;;;;;;4906337;29;20550;-82
2023/06/01 12:19:35;;;;;;;14.57;13.87;;;24.00;99.90;;;;;;4906646;29;20468;-82
2023/06/01 12:22:05;;;;;;;15.40;14.50;;;24.00;99.90;;;;;;4907416;29;21065;-82
2023/06/01 12:24:34;;;;;;;15.20;14.20;;;23.90;99.90;;;;;;4900806;29;20454;-83
2023/06/01 12:27:12;;;;;;;14.00;13.20;;;23.90;99.90;;;;;;4906315;29;20552;-81
2023/06/01 12:29:42;;;;;;;13.53;12.83;;;24.00;99.90;;;;;;4905967;29;20564;-83
2023/06/01 12:32:12;;;;;;;13.73;13.13;;;24.00;99.90;;;;;;4906034;29;20498;-82
2023/06/01 12:34:47;;;;;;;14.37;13.57;;;24.00;99.90;;;;;;4906940;29;20478;-82
2023/06/01 12:37:18;;;;;;;13.80;13.20;;;24.10;99.90;;;;;;4903299;29;20468;-82
2023/06/01 12:39:53;;;;;;;14.57;13.77;;;24.10;99.90;;;;;;4905186;29;20541;-82
2023/06/01 12:42:36;;;;;;;13.60;13.00;;;24.10;99.90;;;;;;4906458;29;20520;-82
2023/06/01 12:45:06;;;;;;;13.80;13.10;;;24.10;99.90;;;;;;4898423;29;20466;-82
2023/06/01 12:47:38;;;;;;;14.03;13.17;;;24.10;99.90;;;;;;4905741;29;20532;-83